sensor_id;sensor_type;location;lat;lon;timestamp;P1;durP1;ratioP1;P2;durP2;ratioP2
21743;SDS011;11034;48.556;9.342;2023-02-24T05:47:33;40.53;;;18.48;;
21743;SDS011;11034;48.556;9.342;2023-02-24T05:50:02;35.85;;;18.90;;
21743;SDS011;11034;48.556;9.342;2023-02-24T05:52:30;42.85;;;22.17;;
21743;SDS011;11034;48.556;9.342;2023-02-24T05:55:00;43.20;;;21.00;;
21743;SDS011;11034;48.556;9.342;2023-02-24T05:57:32;47.05;;;22.75;;
21743;SDS011;11034;48.556;9.342;2023-02-24T06:02:45;55.40;;;24.15;;
21743;SDS011;11034;48.556;9.342;2023-02-24T06:05:16;53.47;;;25.65;;
21743;SDS011;11034;48.556;9.342;2023-02-24T06:07:54;61.30;;;24.95;;
21743;SDS011;11034;48.556;9.342;2023-02-24T06:10:30;60.83;;;23.52;;
21743;SDS011;11034;48.556;9.342;2023-02-24T06:13:00;52.85;;;22.73;;
21743;SDS011;11034;48.556;9.342;2023-02-24T06:15:28;53.45;;;23.35;;
21743;SDS011;11034;48.556;9.342;2023-02-24T06:17:58;58.17;;;24.05;;
21743;SDS011;11034;48.556;9.342;2023-02-24T06:20:27;59.95;;;24.75;;
21743;SDS011;11034;48.556;9.342;2023-02-24T06:22:58;61.88;;;25.35;;
21743;SDS011;11034;48.556;9.342;2023-02-24T06:25:27;70.78;;;27.33;;
21743;SDS011;11034;48.556;9.342;2023-02-24T06:27:55;72.55;;;30.25;;
21743;SDS011;11034;48.556;9.342;2023-02-24T06:30:27;66.50;;;26.60;;
21743;SDS011;11034;48.556;9.342;2023-02-24T06:32:54;69.07;;;25.65;;
21743;SDS011;11034;48.556;9.342;2023-02-24T06:35:24;69.10;;;25.98;;
21743;SDS011;11034;48.556;9.342;2023-02-24T06:37:52;63.38;;;26.35;;
21743;SDS011;11034;48.556;9.342;2023-02-24T06:40:21;45.45;;;22.85;;
21743;SDS011;11034;48.556;9.342;2023-02-24T06:42:50;40.97;;;20.35;;
21743;SDS011;11034;48.556;9.342;2023-02-24T06:45:20;46.55;;;22.55;;
21743;SDS011;11034;48.556;9.342;2023-02-24T06:47:49;51.30;;;22.63;;
21743;SDS011;11034;48.556;9.342;2023-02-24T06:50:17;42.63;;;20.92;;
21743;SDS011;11034;48.556;9.342;2023-02-24T06:52:49;43.67;;;19.48;;
21743;SDS011;11034;48.556;9.342;2023-02-24T06:55:20;35.95;;;19.25;;
21743;SDS011;11034;48.556;9.342;2023-02-24T06:57:52;36.50;;;18.23;;
21743;SDS011;11034;48.556;9.342;2023-02-24T07:00:23;38.08;;;18.45;;
21743;SDS011;11034;48.556;9.342;2023-02-24T07:03:03;45.10;;;18.83;;
21743;SDS011;11034;48.556;9.342;2023-02-24T07:05:40;41.63;;;18.17;;
21743;SDS011;11034;48.556;9.342;2023-02-24T07:08:17;44.38;;;19.67;;
21743;SDS011;11034;48.556;9.342;2023-02-24T07:10:51;44.67;;;20.52;;
21743;SDS011;11034;48.556;9.342;2023-02-24T07:13:21;43.30;;;19.52;;
21743;SDS011;11034;48.556;9.342;2023-02-24T07:15:50;44.15;;;20.17;;
21743;SDS011;11034;48.556;9.342;2023-02-24T07:18:20;43.03;;;20.95;;
21743;SDS011;11034;48.556;9.342;2023-02-24T07:20:51;50.30;;;20.92;;
21743;SDS011;11034;48.556;9.342;2023-02-24T07:23:21;47.20;;;21.63;;
21743;SDS011;11034;48.556;9.342;2023-02-24T07:25:49;50.00;;;22.33;;
21743;SDS011;11034;48.556;9.342;2023-02-24T07:28:18;48.17;;;22.42;;
21743;SDS011;11034;48.556;9.342;2023-02-24T07:30:46;54.03;;;23.90;;
21743;SDS011;11034;48.556;9.342;2023-02-24T07:33:14;53.65;;;24.88;;
21743;SDS011;11034;48.556;9.342;2023-02-24T07:35:47;57.03;;;25.95;;
21743;SDS011;11034;48.556;9.342;2023-02-24T07:38:16;52.03;;;24.38;;
21743;SDS011;11034;48.556;9.342;2023-02-24T07:40:49;52.08;;;24.02;;
21743;SDS011;11034;48.556;9.342;2023-02-24T07:43:17;50.50;;;24.25;;
21743;SDS011;11034;48.556;9.342;2023-02-24T15:02:32;14.75;;;7.32;;
21743;SDS011;11034;48.556;9.342;2023-02-24T15:05:00;23.38;;;8.13;;
21743;SDS011;11034;48.556;9.342;2023-02-24T15:07:29;29.98;;;8.50;;
21743;SDS011;11034;48.556;9.342;2023-02-24T15:09:59;22.92;;;7.57;;
21743;SDS011;11034;48.556;9.342;2023-02-24T15:12:30;18.10;;;7.38;;
21743;SDS011;11034;48.556;9.342;2023-02-24T15:15:01;21.45;;;7.40;;
21743;SDS011;11034;48.556;9.342;2023-02-24T15:17:36;20.27;;;6.53;;
21743;SDS011;11034;48.556;9.342;2023-02-24T15:22:54;14.98;;;7.30;;
21743;SDS011;11034;48.556;9.342;2023-02-24T15:25:23;16.25;;;6.28;;
21743;SDS011;11034;48.556;9.342;2023-02-24T15:28:06;21.38;;;6.82;;
21743;SDS011;11034;48.556;9.342;2023-02-24T15:30:55;22.42;;;6.30;;
21743;SDS011;11034;48.556;9.342;2023-02-24T15:33:30;19.25;;;7.07;;
21743;SDS011;11034;48.556;9.342;2023-02-24T15:36:04;22.27;;;7.32;;
21743;SDS011;11034;48.556;9.342;2023-02-24T15:38:40;17.50;;;6.78;;
21743;SDS011;11034;48.556;9.342;2023-02-24T15:41:12;29.58;;;9.02;;
21743;SDS011;11034;48.556;9.342;2023-02-24T15:43:44;16.88;;;6.85;;
21743;SDS011;11034;48.556;9.342;2023-02-24T15:46:14;22.90;;;7.68;;
21743;SDS011;11034;48.556;9.342;2023-02-24T15:48:50;21.52;;;7.25;;
21743;SDS011;11034;48.556;9.342;2023-02-24T15:51:30;15.65;;;6.45;;
21743;SDS011;11034;48.556;9.342;2023-02-24T15:54:02;17.10;;;6.22;;
21743;SDS011;11034;48.556;9.342;2023-02-24T15:56:32;21.13;;;7.28;;
21743;SDS011;11034;48.556;9.342;2023-02-24T15:59:01;22.05;;;7.07;;
21743;SDS011;11034;48.556;9.342;2023-02-24T16:01:31;16.38;;;6.85;;
21743;SDS011;11034;48.556;9.342;2023-02-24T16:04:03;19.35;;;7.35;;
21743;SDS011;11034;48.556;9.342;2023-02-24T16:06:34;17.10;;;7.30;;
21743;SDS011;11034;48.556;9.342;2023-02-24T16:09:07;24.42;;;7.40;;
21743;SDS011;11034;48.556;9.342;2023-02-24T16:11:40;20.73;;;7.00;;
21743;SDS011;11034;48.556;9.342;2023-02-24T16:14:13;19.45;;;8.80;;
21743;SDS011;11034;48.556;9.342;2023-02-24T16:16:43;20.50;;;8.13;;
21743;SDS011;11034;48.556;9.342;2023-02-24T16:19:13;22.10;;;7.97;;
21743;SDS011;11034;48.556;9.342;2023-02-24T16:21:42;25.27;;;8.30;;
21743;SDS011;11034;48.556;9.342;2023-02-24T16:24:13;21.67;;;8.50;;
21743;SDS011;11034;48.556;9.342;2023-02-24T16:26:41;22.67;;;8.52;;
21743;SDS011;11034;48.556;9.342;2023-02-24T16:29:09;18.30;;;8.38;;
21743;SDS011;11034;48.556;9.342;2023-02-24T16:31:40;22.88;;;8.35;;
21743;SDS011;11034;48.556;9.342;2023-02-24T16:34:10;23.42;;;7.95;;
21743;SDS011;11034;48.556;9.342;2023-02-24T16:36:42;19.90;;;8.00;;
21743;SDS011;11034;48.556;9.342;2023-02-24T16:39:10;25.15;;;8.85;;
21743;SDS011;11034;48.556;9.342;2023-02-24T16:41:40;27.65;;;8.55;;
21743;SDS011;11034;48.556;9.342;2023-02-24T16:44:08;24.10;;;8.52;;
21743;SDS011;11034;48.556;9.342;2023-02-24T16:46:37;22.75;;;8.70;;
21743;SDS011;11034;48.556;9.342;2023-02-24T16:49:07;18.85;;;8.20;;
21743;SDS011;11034;48.556;9.342;2023-02-24T16:51:41;18.92;;;7.85;;
21743;SDS011;11034;48.556;9.342;2023-02-24T16:54:09;22.33;;;9.13;;
21743;SDS011;11034;48.556;9.342;2023-02-24T16:56:37;27.45;;;9.43;;
21743;SDS011;11034;48.556;9.342;2023-02-24T16:59:05;24.70;;;8.77;;
21743;SDS011;11034;48.556;9.342;2023-02-24T17:01:32;18.77;;;7.75;;
21743;SDS011;11034;48.556;9.342;2023-02-24T17:04:00;17.30;;;7.47;;
21743;SDS011;11034;48.556;9.342;2023-02-24T17:06:32;21.15;;;7.85;;
21743;SDS011;11034;48.556;9.342;2023-02-24T17:09:02;19.88;;;7.72;;
21743;SDS011;11034;48.556;9.342;2023-02-24T17:11:30;19.48;;;7.88;;
21743;SDS011;11034;48.556;9.342;2023-02-24T17:13:58;23.83;;;8.90;;
21743;SDS011;11034;48.556;9.342;2023-02-24T17:16:26;19.55;;;8.20;;
21743;SDS011;11034;48.556;9.342;2023-02-24T17:18:54;19.40;;;7.68;;
21743;SDS011;11034;48.556;9.342;2023-02-24T17:21:23;19.88;;;7.38;;
21743;SDS011;11034;48.556;9.342;2023-02-24T17:23:51;23.80;;;8.65;;
21743;SDS011;11034;48.556;9.342;2023-02-24T17:26:20;23.20;;;9.02;;
21743;SDS011;11034;48.556;9.342;2023-02-24T17:28:48;27.40;;;8.63;;
21743;SDS011;11034;48.556;9.342;2023-02-24T17:31:17;20.85;;;7.50;;
21743;SDS011;11034;48.556;9.342;2023-02-24T17:33:45;23.98;;;8.23;;
21743;SDS011;11034;48.556;9.342;2023-02-24T17:36:13;24.27;;;9.18;;
21743;SDS011;11034;48.556;9.342;2023-02-24T17:38:41;29.80;;;10.73;;
21743;SDS011;11034;48.556;9.342;2023-02-24T17:41:12;21.40;;;8.75;;
21743;SDS011;11034;48.556;9.342;2023-02-24T17:43:42;17.65;;;8.45;;
21743;SDS011;11034;48.556;9.342;2023-02-24T17:46:10;28.10;;;10.32;;
21743;SDS011;11034;48.556;9.342;2023-02-24T17:48:38;21.45;;;9.05;;
21743;SDS011;11034;48.556;9.342;2023-02-24T17:51:06;23.83;;;9.68;;
21743;SDS011;11034;48.556;9.342;2023-02-24T17:53:34;23.15;;;9.82;;
21743;SDS011;11034;48.556;9.342;2023-02-24T17:56:05;19.48;;;10.10;;
21743;SDS011;11034;48.556;9.342;2023-02-24T17:58:43;23.13;;;10.75;;
21743;SDS011;11034;48.556;9.342;2023-02-24T18:01:11;27.27;;;12.25;;
21743;SDS011;11034;48.556;9.342;2023-02-24T18:03:39;26.65;;;10.82;;
21743;SDS011;11034;48.556;9.342;2023-02-24T18:06:07;25.75;;;11.73;;
21743;SDS011;11034;48.556;9.342;2023-02-24T18:08:36;35.00;;;14.48;;
21743;SDS011;11034;48.556;9.342;2023-02-24T18:11:06;26.33;;;12.98;;
21743;SDS011;11034;48.556;9.342;2023-02-24T18:13:40;32.08;;;14.20;;
21743;SDS011;11034;48.556;9.342;2023-02-24T18:16:10;31.90;;;14.38;;
21743;SDS011;11034;48.556;9.342;2023-02-24T18:18:39;32.78;;;15.27;;
21743;SDS011;11034;48.556;9.342;2023-02-24T18:21:08;43.15;;;17.00;;
21743;SDS011;11034;48.556;9.342;2023-02-24T18:23:36;38.15;;;16.65;;
21743;SDS011;11034;48.556;9.342;2023-02-24T18:26:06;30.95;;;13.35;;
21743;SDS011;11034;48.556;9.342;2023-02-24T18:28:35;30.25;;;12.80;;
21743;SDS011;11034;48.556;9.342;2023-02-24T18:31:08;22.63;;;11.77;;
21743;SDS011;11034;48.556;9.342;2023-02-24T18:33:39;29.60;;;12.38;;
21743;SDS011;11034;48.556;9.342;2023-02-24T18:36:08;23.17;;;11.02;;
21743;SDS011;11034;48.556;9.342;2023-02-24T18:38:36;24.40;;;9.95;;
21743;SDS011;11034;48.556;9.342;2023-02-24T18:41:05;28.50;;;9.60;;
21743;SDS011;11034;48.556;9.342;2023-02-24T18:43:34;23.35;;;9.60;;
21743;SDS011;11034;48.556;9.342;2023-02-24T18:46:03;22.02;;;9.38;;
21743;SDS011;11034;48.556;9.342;2023-02-24T18:48:33;24.77;;;11.98;;
21743;SDS011;11034;48.556;9.342;2023-02-24T18:51:02;23.48;;;9.68;;
21743;SDS011;11034;48.556;9.342;2023-02-24T18:53:31;19.10;;;9.30;;
21743;SDS011;11034;48.556;9.342;2023-02-24T18:56:02;21.17;;;9.35;;
21743;SDS011;11034;48.556;9.342;2023-02-24T18:58:35;16.45;;;7.70;;
21743;SDS011;11034;48.556;9.342;2023-02-24T19:01:11;17.70;;;6.95;;
21743;SDS011;11034;48.556;9.342;2023-02-24T19:03:42;22.58;;;7.78;;
21743;SDS011;11034;48.556;9.342;2023-02-24T19:06:10;22.77;;;6.97;;
21743;SDS011;11034;48.556;9.342;2023-02-24T19:08:38;13.10;;;6.97;;
21743;SDS011;11034;48.556;9.342;2023-02-24T19:11:08;14.05;;;5.63;;
21743;SDS011;11034;48.556;9.342;2023-02-24T19:13:39;8.48;;;4.43;;
21743;SDS011;11034;48.556;9.342;2023-02-24T19:16:08;10.68;;;4.90;;
21743;SDS011;11034;48.556;9.342;2023-02-24T19:18:37;10.77;;;4.75;;
21743;SDS011;11034;48.556;9.342;2023-02-24T19:21:07;7.30;;;4.20;;
21743;SDS011;11034;48.556;9.342;2023-02-24T19:23:36;11.73;;;5.07;;
21743;SDS011;11034;48.556;9.342;2023-02-24T19:26:12;8.77;;;4.72;;
21743;SDS011;11034;48.556;9.342;2023-02-24T19:28:41;11.30;;;4.72;;
21743;SDS011;11034;48.556;9.342;2023-02-24T19:31:13;11.45;;;4.75;;
21743;SDS011;11034;48.556;9.342;2023-02-24T19:33:41;10.10;;;3.83;;
21743;SDS011;11034;48.556;9.342;2023-02-24T19:36:12;8.25;;;3.42;;
21743;SDS011;11034;48.556;9.342;2023-02-24T19:38:40;10.13;;;3.63;;
21743;SDS011;11034;48.556;9.342;2023-02-24T19:41:08;7.63;;;3.53;;
21743;SDS011;11034;48.556;9.342;2023-02-24T19:43:36;9.18;;;3.28;;
21743;SDS011;11034;48.556;9.342;2023-02-24T19:46:07;6.30;;;2.63;;
21743;SDS011;11034;48.556;9.342;2023-02-24T19:48:37;9.80;;;3.50;;
21743;SDS011;11034;48.556;9.342;2023-02-24T19:51:06;4.75;;;2.60;;
21743;SDS011;11034;48.556;9.342;2023-02-24T19:53:38;6.15;;;3.63;;
21743;SDS011;11034;48.556;9.342;2023-02-24T19:56:11;6.13;;;2.85;;
21743;SDS011;11034;48.556;9.342;2023-02-24T19:58:39;5.50;;;2.13;;
21743;SDS011;11034;48.556;9.342;2023-02-24T20:01:08;8.23;;;2.40;;
21743;SDS011;11034;48.556;9.342;2023-02-24T20:03:38;4.32;;;2.45;;
21743;SDS011;11034;48.556;9.342;2023-02-24T20:06:15;7.78;;;2.50;;
21743;SDS011;11034;48.556;9.342;2023-02-24T20:08:45;9.00;;;3.67;;
21743;SDS011;11034;48.556;9.342;2023-02-24T20:11:13;5.05;;;2.88;;
21743;SDS011;11034;48.556;9.342;2023-02-24T20:13:43;6.35;;;3.50;;
21743;SDS011;11034;48.556;9.342;2023-02-24T20:16:12;6.70;;;3.22;;
21743;SDS011;11034;48.556;9.342;2023-02-24T20:18:42;9.45;;;3.08;;
21743;SDS011;11034;48.556;9.342;2023-02-24T20:21:10;6.43;;;3.15;;
21743;SDS011;11034;48.556;9.342;2023-02-24T20:23:41;7.18;;;2.90;;
21743;SDS011;11034;48.556;9.342;2023-02-24T20:26:12;8.25;;;2.92;;
21743;SDS011;11034;48.556;9.342;2023-02-24T20:28:41;6.68;;;3.60;;
21743;SDS011;11034;48.556;9.342;2023-02-24T20:31:10;6.32;;;3.00;;
21743;SDS011;11034;48.556;9.342;2023-02-24T20:33:40;8.25;;;3.70;;
21743;SDS011;11034;48.556;9.342;2023-02-24T20:36:10;7.50;;;3.28;;
21743;SDS011;11034;48.556;9.342;2023-02-24T20:38:40;8.13;;;3.65;;
21743;SDS011;11034;48.556;9.342;2023-02-24T20:41:08;9.30;;;3.58;;
21743;SDS011;11034;48.556;9.342;2023-02-24T20:43:38;10.48;;;3.83;;
21743;SDS011;11034;48.556;9.342;2023-02-24T20:46:09;10.43;;;3.63;;
21743;SDS011;11034;48.556;9.342;2023-02-24T20:48:38;9.50;;;3.97;;
21743;SDS011;11034;48.556;9.342;2023-02-24T20:51:06;9.10;;;4.15;;
21743;SDS011;11034;48.556;9.342;2023-02-24T20:53:35;9.95;;;4.15;;
21743;SDS011;11034;48.556;9.342;2023-02-24T20:56:22;9.27;;;4.78;;
21743;SDS011;11034;48.556;9.342;2023-02-24T20:58:55;14.68;;;7.20;;
